createdAt,value
2023-05-19T00:00:53.505Z,101768.28
2023-05-19T00:04:02.711Z,101765.00
2023-05-19T00:07:05.781Z,101764.34
2023-05-19T00:10:08.264Z,101768.69
2023-05-19T00:13:10.224Z,101769.59
2023-05-19T00:16:12.970Z,101774.75
2023-05-19T00:19:14.876Z,101779.03
2023-05-19T00:22:16.969Z,101774.91
2023-05-19T00:25:18.805Z,101764.41
2023-05-19T00:28:20.568Z,101770.34
2023-05-19T00:31:22.709Z,101769.28
2023-05-19T00:34:24.772Z,101770.00
2023-05-19T00:37:26.896Z,101766.53
2023-05-19T00:40:31.504Z,101753.69
2023-05-19T00:43:34.497Z,101758.94
2023-05-19T00:46:36.548Z,101758.25
2023-05-19T00:49:38.412Z,101760.78
2023-05-19T00:52:40.445Z,101755.78
2023-05-19T00:55:43.072Z,101750.50
2023-05-19T00:58:48.051Z,101749.09
2023-05-19T01:01:55.300Z,101745.75
2023-05-19T01:04:57.933Z,101749.91
2023-05-19T01:08:00.972Z,101747.56
2023-05-19T01:11:03.595Z,101750.16
2023-05-19T01:14:06.144Z,101741.81
2023-05-19T01:17:10.220Z,101748.66
2023-05-19T01:20:38.736Z,101754.66
2023-05-19T01:23:52.177Z,101755.50
2023-05-19T01:27:12.449Z,101753.06
2023-05-19T01:30:52.116Z,101744.41
2023-05-19T01:33:57.458Z,101750.31
2023-05-19T01:37:01.829Z,101748.75
2023-05-19T01:40:04.364Z,101743.81
2023-05-19T01:43:10.840Z,101752.16
2023-05-19T01:46:13.016Z,101747.31
2023-05-19T01:49:14.936Z,101751.72
2023-05-19T01:52:19.350Z,101755.38
2023-05-19T01:55:23.815Z,101757.19
2023-05-19T01:58:45.660Z,101761.69
2023-05-19T02:01:57.593Z,101751.69
2023-05-19T02:05:29.852Z,101754.50
2023-05-19T02:09:04.061Z,101760.72
2023-05-19T02:12:17.552Z,101753.91
2023-05-19T02:15:27.217Z,101747.22
2023-05-19T02:18:30.057Z,101749.19
2023-05-19T02:21:33.173Z,101752.66
2023-05-19T02:24:35.132Z,101754.66
2023-05-19T02:27:38.644Z,101754.16
2023-05-19T02:30:41.080Z,101757.28
2023-05-19T02:33:43.269Z,101749.78
2023-05-19T02:36:45.388Z,101744.16
2023-05-19T02:39:48.599Z,101747.78
2023-05-19T02:42:50.454Z,101746.34
2023-05-19T02:45:52.789Z,101747.47
2023-05-19T02:48:55.520Z,101744.44
2023-05-19T02:51:57.673Z,101739.56
2023-05-19T02:55:00.784Z,101741.44
2023-05-19T02:58:02.836Z,101731.50
2023-05-19T03:01:08.072Z,101728.94
2023-05-19T03:04:09.965Z,101725.69
2023-05-19T03:07:13.499Z,101725.88
2023-05-19T03:10:15.825Z,101730.94
2023-05-19T03:13:17.600Z,101731.19
2023-05-19T03:16:19.692Z,101729.59
2023-05-19T03:19:22.069Z,101735.56
2023-05-19T03:22:24.178Z,101732.84
2023-05-19T03:25:30.066Z,101726.03
2023-05-19T03:28:32.151Z,101727.75
2023-05-19T03:31:34.141Z,101729.50
2023-05-19T03:34:36.357Z,101724.50
2023-05-19T03:37:38.224Z,101730.34
2023-05-19T03:40:41.497Z,101726.94
2023-05-19T03:43:46.171Z,101720.19
2023-05-19T03:46:51.164Z,101727.69
2023-05-19T03:50:11.195Z,101727.63
2023-05-19T03:53:26.920Z,101737.31
2023-05-19T03:56:28.746Z,101728.00
2023-05-19T03:59:31.382Z,101729.81
2023-05-19T04:02:33.572Z,101732.59
2023-05-19T04:05:35.593Z,101726.66
2023-05-19T04:08:37.743Z,101719.84
2023-05-19T04:11:40.542Z,101729.31
2023-05-19T04:14:42.907Z,101723.47
2023-05-19T04:17:48.348Z,101732.19
2023-05-19T04:20:51.222Z,101732.94
2023-05-19T04:23:54.793Z,101735.53
2023-05-19T04:26:56.964Z,101738.00
2023-05-19T04:29:59.759Z,101741.44
2023-05-19T04:33:05.170Z,101744.03
2023-05-19T04:36:10.665Z,101737.13
2023-05-19T04:39:15.761Z,101738.72
2023-05-19T04:42:26.095Z,101746.25
2023-05-19T04:45:29.010Z,101749.50
2023-05-19T04:48:34.491Z,101752.00
2023-05-19T04:51:36.411Z,101751.03
2023-05-19T04:54:39.719Z,101751.81
2023-05-19T04:57:42.323Z,101753.47
2023-05-19T05:00:44.915Z,101748.16
2023-05-19T05:03:50.742Z,101755.06
2023-05-19T05:06:52.692Z,101748.16
2023-05-19T05:09:56.004Z,101749.13
2023-05-19T05:13:00.814Z,101746.50
2023-05-19T05:16:06.588Z,101742.13
2023-05-19T05:19:09.740Z,101746.19
2023-05-19T05:22:13.318Z,101750.25
2023-05-19T05:25:16.575Z,101749.13
2023-05-19T05:28:19.593Z,101753.91
2023-05-19T05:31:22.827Z,101751.03
2023-05-19T05:34:25.069Z,101752.50
2023-05-19T05:37:27.270Z,101741.81
2023-05-19T05:40:29.762Z,101740.38
2023-05-19T05:43:32.427Z,101740.72
2023-05-19T05:46:38.118Z,101740.50
2023-05-19T05:49:40.300Z,101736.72
2023-05-19T05:52:47.364Z,101738.88
2023-05-19T05:55:51.785Z,101736.72
2023-05-19T05:58:54.140Z,101746.75
2023-05-19T06:01:56.436Z,101748.25
2023-05-19T06:04:59.004Z,101751.88
2023-05-19T06:08:01.343Z,101752.47
2023-05-19T06:11:09.560Z,101752.97
2023-05-19T06:14:13.683Z,101750.84
2023-05-19T06:17:38.261Z,101748.69
2023-05-19T06:20:40.262Z,101750.84
2023-05-19T06:23:42.584Z,101742.88
2023-05-19T06:26:46.929Z,101741.94
2023-05-19T06:29:48.916Z,101737.28
2023-05-19T06:32:51.131Z,101743.03
2023-05-19T06:35:53.181Z,101740.03
2023-05-19T06:38:56.303Z,101741.19
2023-05-19T06:41:58.426Z,101740.63
2023-05-19T06:45:22.122Z,101738.25
2023-05-19T06:48:26.100Z,101744.59
2023-05-19T06:51:28.230Z,101735.38
2023-05-19T06:54:32.088Z,101743.38
2023-05-19T06:57:34.222Z,101744.50
2023-05-19T07:00:37.681Z,101745.47
2023-05-19T07:03:43.460Z,101740.53
2023-05-19T07:06:47.534Z,101740.91
2023-05-19T07:09:49.738Z,101745.75
2023-05-19T07:12:53.798Z,101734.94
2023-05-19T07:15:58.825Z,101736.88
2023-05-19T07:19:04.107Z,101744.19
2023-05-19T07:22:06.490Z,101739.47
2023-05-19T07:25:16.963Z,101740.03
2023-05-19T07:28:22.970Z,101728.56
2023-05-19T07:31:26.154Z,101736.59
2023-05-19T07:34:29.275Z,101721.28
2023-05-19T07:37:31.328Z,101725.16
2023-05-19T07:40:33.822Z,101722.53
2023-05-19T07:43:39.021Z,101721.22
2023-05-19T07:46:41.895Z,101729.19
2023-05-19T07:49:51.754Z,101723.91
2023-05-19T07:52:55.524Z,101723.13
2023-05-19T07:55:59.965Z,101711.53
2023-05-19T07:59:02.647Z,101716.97
2023-05-19T08:02:04.800Z,101708.78
2023-05-19T08:05:12.641Z,101717.72
2023-05-19T08:08:17.071Z,101713.69
2023-05-19T08:11:19.178Z,101715.03
2023-05-19T08:14:28.337Z,101712.22
2023-05-19T08:17:31.633Z,101720.44
2023-05-19T08:20:35.414Z,101710.28
2023-05-19T08:23:49.785Z,101717.75
2023-05-19T08:26:52.115Z,101718.97
2023-05-19T08:29:55.517Z,101713.25
2023-05-19T08:32:58.609Z,101695.19
2023-05-19T08:36:08.280Z,101708.88
2023-05-19T08:39:11.151Z,101705.03
2023-05-19T08:42:16.914Z,101700.53
2023-05-19T08:45:20.495Z,101702.00
2023-05-19T08:48:23.344Z,101690.72
2023-05-19T08:51:32.605Z,101698.81
2023-05-19T08:54:47.261Z,101699.63
2023-05-19T08:57:51.198Z,101686.06
2023-05-19T09:01:03.495Z,101684.38
2023-05-19T09:04:10.638Z,101679.56
2023-05-19T09:07:19.006Z,101670.00
2023-05-19T09:10:35.442Z,101673.72
2023-05-19T09:13:38.234Z,101675.97
2023-05-19T09:17:16.433Z,101676.63
2023-05-19T09:20:27.053Z,101676.78
2023-05-19T09:23:34.177Z,101668.13
2023-05-19T09:26:40.365Z,101664.56
2023-05-19T09:29:45.638Z,101664.53
2023-05-19T09:32:59.593Z,101659.53
2023-05-19T09:36:05.109Z,101663.66
2023-05-19T09:39:18.531Z,101657.72
2023-05-19T09:42:38.968Z,101652.91
2023-05-19T09:46:14.790Z,101659.00
2023-05-19T09:49:31.353Z,101654.78
2023-05-19T09:52:39.234Z,101641.53
2023-05-19T09:55:42.974Z,101646.72
2023-05-19T09:58:48.753Z,101630.53
2023-05-19T10:01:55.649Z,101644.69
2023-05-19T10:04:57.960Z,101634.75
2023-05-19T10:08:00.893Z,101639.03
2023-05-19T10:11:05.109Z,101645.53
2023-05-19T10:14:08.440Z,101635.75
2023-05-19T10:17:12.261Z,101637.00
2023-05-19T10:20:17.143Z,101631.50
2023-05-19T10:23:19.516Z,101625.28
2023-05-19T10:26:23.227Z,101628.47
2023-05-19T10:29:43.621Z,101632.69
2023-05-19T10:32:48.626Z,101625.34
2023-05-19T10:36:18.922Z,101630.03
2023-05-19T10:39:37.904Z,101616.97
2023-05-19T10:43:12.917Z,101611.78
2023-05-19T10:46:16.433Z,101616.88
2023-05-19T10:49:24.198Z,101615.00
2023-05-19T10:52:30.054Z,101606.03
2023-05-19T10:56:04.981Z,101593.06
2023-05-19T10:59:07.165Z,101594.53
2023-05-19T11:02:09.710Z,101595.19
2023-05-19T11:05:18.685Z,101593.94
2023-05-19T11:08:34.526Z,101596.66
2023-05-19T11:11:54.201Z,101591.63
2023-05-19T11:15:01.082Z,101592.13
2023-05-19T11:18:07.125Z,101600.38
2023-05-19T11:21:16.396Z,101600.91
2023-05-19T11:25:06.849Z,101597.09
2023-05-19T11:28:23.444Z,101590.03
2023-05-19T11:31:28.466Z,101587.13
2023-05-19T11:34:39.112Z,101586.91
2023-05-19T11:38:00.845Z,101588.38
2023-05-19T11:41:10.644Z,101577.03
2023-05-19T11:52:32.586Z,101575.50
2023-05-19T11:55:41.085Z,101562.41
2023-05-19T11:58:43.607Z,101571.97
2023-05-19T12:01:53.561Z,101573.53
2023-05-19T12:05:10.295Z,101567.44
2023-05-19T12:08:19.602Z,101563.22
2023-05-19T12:11:25.359Z,101561.13
2023-05-19T12:14:31.530Z,101556.84
2023-05-19T12:17:34.987Z,101558.34
2023-05-19T12:20:38.038Z,101550.94
2023-05-19T12:23:44.690Z,101550.00
2023-05-19T12:26:54.332Z,101545.56
2023-05-19T12:29:57.656Z,101551.72
2023-05-19T12:33:03.677Z,101550.78
2023-05-19T12:36:08.957Z,101558.19
2023-05-19T12:39:11.885Z,101544.31
2023-05-19T12:42:16.611Z,101545.28
2023-05-19T12:45:23.298Z,101547.97
2023-05-19T12:48:25.402Z,101534.78
2023-05-19T12:51:27.235Z,101532.19
2023-05-19T12:54:33.746Z,101539.84
2023-05-19T12:57:37.151Z,101531.06
2023-05-19T13:00:50.603Z,101538.34
2023-05-19T13:03:53.154Z,101533.25
2023-05-19T13:06:55.916Z,101524.97
2023-05-19T13:09:57.789Z,101526.03
2023-05-19T13:13:00.723Z,101525.50
2023-05-19T13:16:02.702Z,101520.09
2023-05-19T13:19:06.341Z,101516.66
2023-05-19T13:22:11.464Z,101522.78
2023-05-19T13:25:23.532Z,101521.16
2023-05-19T13:28:26.498Z,101519.63
2023-05-19T13:31:29.205Z,101523.50
2023-05-19T13:34:31.310Z,101514.19
2023-05-19T13:37:33.810Z,101520.69
2023-05-19T13:40:37.128Z,101518.03
2023-05-19T13:43:39.117Z,101515.41
2023-05-19T13:46:45.819Z,101513.84
2023-05-19T13:50:04.650Z,101514.94
2023-05-19T13:53:06.915Z,101506.06
2023-05-19T13:56:09.225Z,101513.78
2023-05-19T13:59:12.085Z,101510.59
2023-05-19T14:02:20.721Z,101513.38
2023-05-19T14:05:24.793Z,101504.94
2023-05-19T14:08:31.441Z,101501.63
2023-05-19T14:11:34.340Z,101500.41
2023-05-19T14:14:36.689Z,101500.41
2023-05-19T14:17:38.947Z,101488.97
2023-05-19T14:20:41.951Z,101471.66
2023-05-19T14:23:45.677Z,101477.75
2023-05-19T14:26:48.812Z,101479.34
2023-05-19T14:29:51.106Z,101479.84
2023-05-19T14:32:55.533Z,101484.66
2023-05-19T14:36:05.693Z,101488.16
2023-05-19T14:39:07.949Z,101490.25
2023-05-19T14:42:10.793Z,101484.06
2023-05-19T14:45:13.634Z,101491.16
2023-05-19T14:48:16.049Z,101482.38
2023-05-19T14:51:19.267Z,101486.38
2023-05-19T14:54:21.138Z,101493.41
2023-05-19T14:57:23.304Z,101493.25
2023-05-19T15:00:27.875Z,101484.81
2023-05-19T15:03:30.217Z,101488.34
2023-05-19T15:06:33.284Z,101477.16
2023-05-19T15:09:36.143Z,101473.38
2023-05-19T15:12:38.740Z,101474.38
2023-05-19T15:15:40.735Z,101473.19
2023-05-19T15:18:42.889Z,101471.91
2023-05-19T15:21:45.779Z,101466.38
2023-05-19T15:24:48.012Z,101472.28
2023-05-19T15:27:51.823Z,101466.19
2023-05-19T15:30:56.389Z,101470.53
2023-05-19T15:33:58.423Z,101468.66
2023-05-19T15:37:00.521Z,101477.19
2023-05-19T15:40:05.688Z,101480.59
2023-05-19T15:43:08.912Z,101475.28
2023-05-19T15:46:13.340Z,101476.78
2023-05-19T15:49:15.410Z,101477.50
2023-05-19T15:52:17.801Z,101480.81
2023-05-19T15:55:23.398Z,101481.53
2023-05-19T15:58:25.749Z,101466.50
2023-05-19T16:01:28.085Z,101475.44
2023-05-19T16:04:30.469Z,101480.22
2023-05-19T16:07:32.852Z,101466.94
2023-05-19T16:10:35.325Z,101463.22
2023-05-19T16:13:38.034Z,101463.16
2023-05-19T16:16:40.316Z,101454.19
2023-05-19T16:19:46.679Z,101459.81
2023-05-19T16:22:51.873Z,101451.22
2023-05-19T16:25:54.929Z,101449.50
2023-05-19T16:28:57.068Z,101446.88
2023-05-19T16:31:59.194Z,101449.66
2023-05-19T16:35:02.358Z,101442.53
2023-05-19T16:38:04.581Z,101440.59
2023-05-19T16:41:07.323Z,101434.72
2023-05-19T16:44:14.649Z,101438.31
2023-05-19T16:47:17.044Z,101444.47
2023-05-19T16:50:21.950Z,101439.06
2023-05-19T16:53:24.039Z,101442.38
2023-05-19T16:56:25.980Z,101442.72
2023-05-19T16:59:28.391Z,101444.00
2023-05-19T17:02:31.151Z,101445.13
2023-05-19T17:05:35.970Z,101442.03
2023-05-19T17:08:38.690Z,101440.06
2023-05-19T17:11:42.383Z,101439.72
2023-05-19T17:14:45.194Z,101441.84
2023-05-19T17:17:50.788Z,101433.94
2023-05-19T17:20:55.508Z,101439.00
2023-05-19T17:23:58.603Z,101430.66
2023-05-19T17:27:05.495Z,101438.34
2023-05-19T17:30:09.263Z,101436.50
2023-05-19T17:33:11.285Z,101431.38
2023-05-19T17:36:13.988Z,101442.03
2023-05-19T17:39:16.578Z,101442.13
2023-05-19T17:42:31.291Z,101441.22
2023-05-19T17:45:42.020Z,101438.34
2023-05-19T17:52:20.882Z,101439.66
2023-05-19T17:55:33.518Z,101442.31
2023-05-19T17:58:43.776Z,101445.31
2023-05-19T18:02:11.930Z,101452.56
2023-05-19T18:05:23.025Z,101446.91
2023-05-19T18:08:35.626Z,101447.09
2023-05-19T18:11:55.804Z,101432.44
2023-05-19T18:18:48.386Z,101431.13
2023-05-19T18:22:20.532Z,101434.38
2023-05-19T18:29:23.565Z,101429.38
2023-05-19T18:33:19.352Z,101433.50
2023-05-19T18:45:13.774Z,101435.28
2023-05-19T19:20:30.545Z,101453.34
2023-05-19T19:25:09.079Z,101454.81
2023-05-19T19:28:43.768Z,101453.03
2023-05-19T19:32:34.558Z,101455.03
2023-05-19T19:36:26.592Z,101468.53
2023-05-19T19:43:44.100Z,101463.97
2023-05-19T19:47:13.221Z,101472.28
2023-05-19T19:50:33.562Z,101473.63
2023-05-19T19:53:51.184Z,101478.53
2023-05-19T19:57:01.934Z,101475.44
2023-05-19T20:00:08.664Z,101489.50
2023-05-19T20:03:12.635Z,101489.63
2023-05-19T20:06:19.181Z,101483.97
2023-05-19T20:09:22.062Z,101484.34
2023-05-19T20:12:31.756Z,101489.19
2023-05-19T20:15:55.261Z,101491.59
2023-05-19T20:19:10.850Z,101490.31
2023-05-19T20:22:23.012Z,101486.38
2023-05-19T20:25:29.088Z,101483.47
2023-05-19T20:28:35.046Z,101493.75
2023-05-19T20:31:41.309Z,101493.63
2023-05-19T20:38:04.227Z,101498.00
2023-05-19T20:41:06.847Z,101495.66
2023-05-19T20:44:18.802Z,101497.16
2023-05-19T20:47:29.767Z,101505.44
2023-05-19T20:50:36.109Z,101498.94
2023-05-19T20:53:42.529Z,101501.66
2023-05-19T20:56:44.973Z,101501.06
2023-05-19T20:59:50.520Z,101496.22
2023-05-19T21:02:56.620Z,101498.19
2023-05-19T21:06:06.746Z,101504.69
2023-05-19T21:09:11.852Z,101506.00
2023-05-19T21:12:17.411Z,101514.81
2023-05-19T21:15:24.925Z,101500.78
2023-05-19T21:18:40.025Z,101501.00
2023-05-19T21:21:45.057Z,101502.06
2023-05-19T21:24:52.197Z,101505.47
2023-05-19T21:27:56.283Z,101504.38
2023-05-19T21:31:01.780Z,101510.88
2023-05-19T21:34:07.099Z,101516.28
2023-05-19T21:37:11.973Z,101512.25
2023-05-19T21:40:15.155Z,101516.88
2023-05-19T21:43:19.661Z,101528.31
2023-05-19T21:46:22.126Z,101526.41
2023-05-19T21:49:24.704Z,101526.75
2023-05-19T21:52:27.232Z,101532.47
2023-05-19T21:55:32.271Z,101522.75
2023-05-19T21:58:38.247Z,101528.81
2023-05-19T22:01:41.933Z,101538.34
2023-05-19T22:04:45.083Z,101529.84
2023-05-19T22:07:48.637Z,101533.50
2023-05-19T22:10:56.077Z,101530.41
2023-05-19T22:14:00.534Z,101527.91
2023-05-19T22:17:05.094Z,101529.06
2023-05-19T22:20:08.490Z,101529.53
2023-05-19T22:23:10.917Z,101531.41
2023-05-19T22:26:13.051Z,101524.97
2023-05-19T22:29:18.588Z,101527.00
2023-05-19T22:32:21.356Z,101526.03
2023-05-19T22:35:23.780Z,101524.59
2023-05-19T22:38:26.126Z,101530.13
2023-05-19T22:41:28.543Z,101528.19
2023-05-19T22:44:36.499Z,101532.06
2023-05-19T22:47:38.980Z,101537.34
2023-05-19T22:50:46.359Z,101534.25
2023-05-19T22:53:49.372Z,101542.97
2023-05-19T22:56:54.991Z,101534.56
2023-05-19T23:00:06.497Z,101536.66
2023-05-19T23:03:09.266Z,101534.50
2023-05-19T23:06:11.843Z,101537.28
2023-05-19T23:09:15.427Z,101535.84
2023-05-19T23:12:17.946Z,101540.91
2023-05-19T23:15:20.368Z,101545.50
2023-05-19T23:18:25.206Z,101549.25
2023-05-19T23:21:27.219Z,101560.44
2023-05-19T23:24:29.572Z,101562.22
2023-05-19T23:27:31.741Z,101559.75
2023-05-19T23:30:37.176Z,101563.16
2023-05-19T23:33:39.803Z,101559.75
2023-05-19T23:36:43.027Z,101554.88
2023-05-19T23:39:45.535Z,101557.56
2023-05-19T23:42:47.601Z,101561.09
2023-05-19T23:45:50.221Z,101566.69
2023-05-19T23:48:52.484Z,101556.53
2023-05-19T23:51:54.684Z,101562.53
2023-05-19T23:54:57.311Z,101565.84
2023-05-19T23:58:03.651Z,101560.75
